createdAt,value
2023-03-24T00:00:49.075Z,383.00
2023-03-24T00:04:49.184Z,384.00
2023-03-24T00:08:49.439Z,381.00
2023-03-24T00:12:49.463Z,379.00
2023-03-24T00:16:49.658Z,380.00
2023-03-24T00:20:49.715Z,382.00
2023-03-24T00:24:49.878Z,380.00
2023-03-24T00:28:50.002Z,382.00
2023-03-24T00:32:50.233Z,384.00
2023-03-24T00:36:50.257Z,387.00
2023-03-24T00:40:50.421Z,385.00
2023-03-24T00:44:50.525Z,378.00
2023-03-24T00:48:50.657Z,382.00
2023-03-24T00:52:50.788Z,381.00
2023-03-24T00:56:50.952Z,382.00
2023-03-24T01:00:51.041Z,388.00
2023-03-24T01:04:51.174Z,384.00
2023-03-24T01:08:51.327Z,381.00
2023-03-24T01:12:51.499Z,379.00
2023-03-24T01:16:51.575Z,376.00
2023-03-24T01:20:51.786Z,379.00
2023-03-24T01:24:51.881Z,376.00
2023-03-24T01:28:52.065Z,376.00
2023-03-24T01:32:52.300Z,380.00
2023-03-24T01:36:52.295Z,383.00
2023-03-24T01:40:52.547Z,380.00
2023-03-24T01:44:52.593Z,384.00
2023-03-24T01:48:52.774Z,381.00
2023-03-24T01:52:52.904Z,378.00
2023-03-24T01:56:53.085Z,377.00
2023-03-24T02:00:53.284Z,377.00
2023-03-24T02:04:53.337Z,377.00
2023-03-24T02:08:53.555Z,375.00
2023-03-24T02:12:53.654Z,374.00
2023-03-24T02:16:53.782Z,377.00
2023-03-24T02:20:53.962Z,379.00
2023-03-24T02:24:54.063Z,376.00
2023-03-24T02:28:54.692Z,374.00
2023-03-24T02:32:54.474Z,373.00
2023-03-24T02:36:54.659Z,374.00
2023-03-24T02:40:54.821Z,377.00
2023-03-24T02:44:54.981Z,372.00
2023-03-24T02:48:55.116Z,376.00
2023-03-24T02:52:55.293Z,373.00
2023-03-24T02:56:55.562Z,373.00
2023-03-24T03:00:55.708Z,376.00
2023-03-24T03:04:55.951Z,371.00
2023-03-24T03:08:56.077Z,377.00
2023-03-24T03:12:56.312Z,376.00
2023-03-24T03:16:56.485Z,377.00
2023-03-24T03:20:56.675Z,376.00
2023-03-24T03:24:56.862Z,376.00
2023-03-24T03:28:57.131Z,375.00
2023-03-24T03:32:57.722Z,375.00
2023-03-24T03:36:57.513Z,376.00
2023-03-24T03:40:57.726Z,376.00
2023-03-24T03:44:57.693Z,374.00
2023-03-24T03:48:57.633Z,366.00
2023-03-24T03:52:57.633Z,362.00
2023-03-24T03:56:57.666Z,365.00
2023-03-24T04:00:57.506Z,362.00
2023-03-24T04:05:05.731Z,361.00
2023-03-24T04:08:58.526Z,364.00
2023-03-24T04:12:57.509Z,368.00
2023-03-24T04:16:57.547Z,370.00
2023-03-24T04:20:57.456Z,365.00
2023-03-24T04:24:57.420Z,364.00
2023-03-24T04:28:57.334Z,365.00
2023-03-24T04:32:57.358Z,366.00
2023-03-24T04:36:57.252Z,367.00
2023-03-24T04:40:57.238Z,366.00
2023-03-24T04:44:57.234Z,365.00
2023-03-24T04:48:57.171Z,364.00
2023-03-24T04:52:57.291Z,369.00
2023-03-24T04:56:57.392Z,374.00
2023-03-24T05:00:57.775Z,374.00
2023-03-24T05:04:57.209Z,374.00
2023-03-24T05:08:57.134Z,376.00
2023-03-24T05:12:57.120Z,378.00
2023-03-24T05:16:57.113Z,380.00
2023-03-24T05:20:57.047Z,381.00
2023-03-24T05:24:57.036Z,382.00
2023-03-24T05:28:57.032Z,384.00
2023-03-24T05:32:56.978Z,388.00
2023-03-24T05:36:56.911Z,389.00
2023-03-24T05:40:56.894Z,389.00
2023-03-24T05:44:56.868Z,386.00
2023-03-24T05:48:56.843Z,380.00
2023-03-24T05:52:56.809Z,381.00
2023-03-24T05:56:56.856Z,381.00
2023-03-24T06:00:56.725Z,379.00
2023-03-24T06:04:56.693Z,382.00
2023-03-24T06:08:56.669Z,381.00
2023-03-24T06:12:56.598Z,383.00
2023-03-24T06:16:56.605Z,382.00
2023-03-24T06:20:56.553Z,384.00
2023-03-24T06:24:56.528Z,386.00
2023-03-24T06:28:56.517Z,387.00
2023-03-24T06:32:56.612Z,383.00
2023-03-24T06:36:56.678Z,434.00
2023-03-24T06:40:56.537Z,517.00
2023-03-24T06:44:56.507Z,601.00
2023-03-24T06:48:56.533Z,620.00
2023-03-24T06:52:56.432Z,588.00
2023-03-24T06:56:56.441Z,517.00
2023-03-24T07:00:56.381Z,494.00
2023-03-24T07:04:56.384Z,471.00
2023-03-24T07:08:56.301Z,449.00
2023-03-24T07:12:56.263Z,433.00
2023-03-24T07:16:56.325Z,428.00
2023-03-24T07:20:56.148Z,415.00
2023-03-24T07:24:56.127Z,414.00
2023-03-24T07:28:56.094Z,410.00
2023-03-24T07:32:56.100Z,409.00
2023-03-24T07:36:56.117Z,418.00
2023-03-24T07:40:55.967Z,424.00
2023-03-24T07:44:55.954Z,420.00
2023-03-24T07:48:58.070Z,425.00
2023-03-24T07:52:58.641Z,429.00
2023-03-24T07:56:56.304Z,425.00
2023-03-24T08:00:56.013Z,427.00
2023-03-24T08:04:55.982Z,435.00
2023-03-24T08:08:55.973Z,436.00
2023-03-24T08:12:55.959Z,436.00
2023-03-24T08:16:55.894Z,439.00
2023-03-24T08:20:55.855Z,446.00
2023-03-24T08:24:55.841Z,442.00
2023-03-24T08:28:55.832Z,447.00
2023-03-24T08:32:55.948Z,533.00
2023-03-24T08:36:56.009Z,559.00
2023-03-24T08:40:56.142Z,550.00
2023-03-24T08:44:56.322Z,533.00
2023-03-24T08:48:56.605Z,512.00
2023-03-24T08:52:56.775Z,493.00
2023-03-24T08:56:56.982Z,490.00
2023-03-24T09:00:57.081Z,472.00
2023-03-24T09:04:57.351Z,464.00
2023-03-24T09:08:57.505Z,459.00
2023-03-24T09:12:57.683Z,455.00
2023-03-24T09:16:57.820Z,448.00
2023-03-24T09:20:57.938Z,445.00
2023-03-24T09:24:58.118Z,444.00
2023-03-24T09:28:58.198Z,523.00
2023-03-24T09:32:58.234Z,526.00
2023-03-24T09:36:58.303Z,518.00
2023-03-24T09:40:58.881Z,502.00
2023-03-24T09:44:58.608Z,649.00
2023-03-24T09:48:58.875Z,629.00
2023-03-24T09:52:58.640Z,659.00
2023-03-24T09:56:58.658Z,725.00
2023-03-24T10:00:58.868Z,750.00
2023-03-24T10:04:58.764Z,789.00
2023-03-24T10:08:58.729Z,820.00
2023-03-24T10:12:58.748Z,869.00
2023-03-24T10:16:58.677Z,877.00
2023-03-24T10:20:58.700Z,923.00
2023-03-24T10:24:58.640Z,912.00
2023-03-24T10:28:58.624Z,954.00
2023-03-24T10:32:58.908Z,728.00
2023-03-24T10:36:58.863Z,578.00
2023-03-24T10:40:58.477Z,513.00
2023-03-24T10:44:58.480Z,476.00
2023-03-24T10:48:58.402Z,538.00
2023-03-24T10:52:58.360Z,616.00
2023-03-24T10:56:58.395Z,612.00
2023-03-24T11:00:58.576Z,622.00
2023-03-24T11:04:58.618Z,669.00
2023-03-24T11:08:58.896Z,689.00
2023-03-24T11:12:58.657Z,697.00
2023-03-24T11:16:58.786Z,685.00
2023-03-24T11:20:58.759Z,661.00
2023-03-24T11:24:59.417Z,663.00
2023-03-24T11:28:58.926Z,604.00
2023-03-24T11:32:58.776Z,594.00
2023-03-24T11:36:58.750Z,568.00
2023-03-24T11:40:58.893Z,541.00
2023-03-24T11:44:58.672Z,513.00
2023-03-24T11:48:58.655Z,495.00
2023-03-24T11:52:58.556Z,478.00
2023-03-24T11:56:58.585Z,464.00
2023-03-24T12:00:58.572Z,455.00
2023-03-24T12:04:58.545Z,451.00
2023-03-24T12:08:58.520Z,450.00
2023-03-24T12:12:58.399Z,456.00
2023-03-24T12:16:58.375Z,452.00
2023-03-24T12:20:58.368Z,448.00
2023-03-24T12:24:58.382Z,446.00
2023-03-24T12:28:58.620Z,447.00
2023-03-24T12:32:58.764Z,449.00
2023-03-24T12:36:58.830Z,455.00
2023-03-24T12:40:58.895Z,449.00
2023-03-24T12:44:58.984Z,450.00
2023-03-24T12:48:58.941Z,448.00
2023-03-24T12:56:59.885Z,445.00
2023-03-24T13:00:58.845Z,442.00
2023-03-24T13:04:58.756Z,436.00
2023-03-24T13:08:58.927Z,450.00
2023-03-24T13:12:58.760Z,464.00
2023-03-24T13:16:58.786Z,470.00
2023-03-24T13:20:58.662Z,462.00
2023-03-24T13:24:58.626Z,448.00
2023-03-24T13:28:58.659Z,441.00
2023-03-24T13:32:58.635Z,459.00
2023-03-24T13:36:58.565Z,479.00
2023-03-24T13:40:58.944Z,483.00
2023-03-24T13:44:58.505Z,488.00
2023-03-24T13:48:58.426Z,494.00
2023-03-24T13:52:58.405Z,498.00
2023-03-24T13:56:58.442Z,498.00
2023-03-24T14:00:58.391Z,490.00
2023-03-24T14:04:58.279Z,491.00
2023-03-24T14:08:58.516Z,495.00
2023-03-24T14:12:58.215Z,494.00
2023-03-24T14:16:58.271Z,492.00
2023-03-24T14:20:58.291Z,494.00
2023-03-24T14:24:58.324Z,499.00
2023-03-24T14:28:58.376Z,466.00
2023-03-24T14:32:58.633Z,450.00
2023-03-24T14:36:58.706Z,441.00
2023-03-24T14:40:58.721Z,447.00
2023-03-24T14:44:58.959Z,464.00
2023-03-24T14:48:58.988Z,466.00
2023-03-24T14:52:59.020Z,459.00
2023-03-24T14:56:59.135Z,448.00
2023-03-24T15:01:07.238Z,437.00
2023-03-24T15:05:00.139Z,433.00
2023-03-24T15:08:59.058Z,422.00
2023-03-24T15:12:58.978Z,417.00
2023-03-24T15:16:58.929Z,416.00
2023-03-24T15:20:58.911Z,413.00
2023-03-24T15:24:58.930Z,412.00
2023-03-24T15:28:58.954Z,408.00
2023-03-24T15:32:59.096Z,411.00
2023-03-24T15:36:59.149Z,416.00
2023-03-24T15:40:59.327Z,412.00
2023-03-24T15:44:59.317Z,413.00
2023-03-24T15:48:59.393Z,411.00
2023-03-24T15:52:59.574Z,408.00
2023-03-24T15:56:59.635Z,405.00
2023-03-24T16:00:59.844Z,408.00
2023-03-24T16:05:09.750Z,411.00
2023-03-24T16:09:00.967Z,410.00
2023-03-24T16:12:59.916Z,411.00
2023-03-24T16:17:00.132Z,415.00
2023-03-24T16:21:00.009Z,411.00
2023-03-24T16:24:59.984Z,410.00
2023-03-24T16:28:59.968Z,413.00
2023-03-24T16:32:59.950Z,411.00
2023-03-24T16:36:59.933Z,417.00
2023-03-24T16:40:59.864Z,407.00
2023-03-24T16:44:59.806Z,407.00
2023-03-24T16:48:59.791Z,406.00
2023-03-24T16:52:59.829Z,406.00
2023-03-24T16:56:59.769Z,404.00
2023-03-24T17:01:00.031Z,404.00
2023-03-24T17:04:59.628Z,405.00
2023-03-24T17:08:59.637Z,405.00
2023-03-24T17:12:59.604Z,405.00
2023-03-24T17:16:59.505Z,403.00
2023-03-24T17:20:59.566Z,400.00
2023-03-24T17:24:59.466Z,398.00
2023-03-24T17:28:59.447Z,397.00
2023-03-24T17:32:59.460Z,398.00
2023-03-24T17:36:59.399Z,405.00
2023-03-24T17:40:59.333Z,402.00
2023-03-24T17:44:59.299Z,396.00
2023-03-24T17:48:59.268Z,394.00
2023-03-24T17:52:59.363Z,394.00
2023-03-24T17:56:59.460Z,395.00
2023-03-24T18:00:59.622Z,396.00
2023-03-24T18:05:00.498Z,393.00
2023-03-24T18:08:59.457Z,393.00
2023-03-24T18:12:59.433Z,390.00
2023-03-24T18:16:59.454Z,393.00
2023-03-24T18:20:59.582Z,392.00
2023-03-24T18:24:59.766Z,393.00
2023-03-24T18:28:59.894Z,393.00
2023-03-24T18:33:00.123Z,393.00
2023-03-24T18:37:00.214Z,397.00
2023-03-24T18:41:00.438Z,396.00
2023-03-24T18:45:00.575Z,394.00
2023-03-24T18:49:01.035Z,392.00
2023-03-24T18:53:01.037Z,396.00
2023-03-24T18:57:01.180Z,397.00
2023-03-24T19:01:01.414Z,394.00
2023-03-24T19:05:01.683Z,400.00
2023-03-24T19:09:01.635Z,394.00
2023-03-24T19:13:01.594Z,394.00
2023-03-24T19:17:01.516Z,395.00
2023-03-24T19:21:01.472Z,392.00
2023-03-24T19:25:01.504Z,391.00
2023-03-24T19:29:01.442Z,393.00
2023-03-24T19:33:01.381Z,389.00
2023-03-24T19:37:01.357Z,386.00
2023-03-24T19:41:01.309Z,385.00
2023-03-24T19:45:01.289Z,389.00
2023-03-24T19:49:01.372Z,388.00
2023-03-24T19:53:01.592Z,390.00
2023-03-24T19:57:01.683Z,389.00
2023-03-24T20:01:01.736Z,388.00
2023-03-24T20:05:01.763Z,389.00
2023-03-24T20:09:01.787Z,391.00
2023-03-24T20:13:01.852Z,391.00
2023-03-24T20:17:01.881Z,389.00
2023-03-24T20:21:01.853Z,393.00
2023-03-24T20:25:01.906Z,391.00
2023-03-24T20:29:01.906Z,382.00
2023-03-24T20:33:01.914Z,382.00
2023-03-24T20:37:01.893Z,383.00
2023-03-24T20:41:01.879Z,384.00
2023-03-24T20:45:02.695Z,384.00
2023-03-24T20:49:01.789Z,381.00
2023-03-24T20:53:01.833Z,389.00
2023-03-24T20:57:01.888Z,390.00
2023-03-24T21:01:01.886Z,383.00
2023-03-24T21:05:01.849Z,384.00
2023-03-24T21:09:01.872Z,381.00
2023-03-24T21:13:01.946Z,383.00
2023-03-24T21:17:02.117Z,386.00
2023-03-24T21:21:01.944Z,382.00
2023-03-24T21:25:02.029Z,376.00
2023-03-24T21:29:02.074Z,383.00
2023-03-24T21:33:02.141Z,378.00
2023-03-24T21:37:02.133Z,382.00
2023-03-24T21:41:02.156Z,382.00
2023-03-24T21:45:02.194Z,383.00
2023-03-24T21:49:02.663Z,384.00
2023-03-24T21:53:02.363Z,383.00
2023-03-24T21:57:02.408Z,384.00
2023-03-24T22:01:02.538Z,379.00
2023-03-24T22:05:02.619Z,381.00
2023-03-24T22:09:02.635Z,384.00
2023-03-24T22:13:02.702Z,383.00
2023-03-24T22:17:03.809Z,380.00
2023-03-24T22:21:02.971Z,381.00
2023-03-24T22:25:03.570Z,378.00
2023-03-24T22:29:03.088Z,376.00
2023-03-24T22:33:03.738Z,374.00
2023-03-24T22:37:03.328Z,370.00
2023-03-24T22:41:03.389Z,371.00
2023-03-24T22:45:03.532Z,375.00
2023-03-24T22:49:03.706Z,376.00
2023-03-24T22:53:03.678Z,375.00
2023-03-24T22:57:03.828Z,377.00
2023-03-24T23:01:03.927Z,378.00
2023-03-24T23:05:04.083Z,376.00
2023-03-24T23:09:04.203Z,373.00
2023-03-24T23:13:04.444Z,375.00
2023-03-24T23:17:04.469Z,375.00
2023-03-24T23:21:04.540Z,375.00
2023-03-24T23:25:04.672Z,374.00
2023-03-24T23:29:05.734Z,376.00
2023-03-24T23:33:05.057Z,375.00
2023-03-24T23:37:05.281Z,380.00
2023-03-24T23:41:05.246Z,382.00
2023-03-24T23:45:05.371Z,380.00
2023-03-24T23:49:05.465Z,378.00
2023-03-24T23:53:05.590Z,381.00
2023-03-24T23:57:05.716Z,382.00
